createdAt,value
2023-03-29T00:00:46.099Z,8.769145
2023-03-29T00:01:46.111Z,8.769138
2023-03-29T00:02:46.153Z,8.769284
2023-03-29T00:03:46.158Z,8.769298
2023-03-29T00:04:46.178Z,8.769227
2023-03-29T00:05:46.137Z,8.769340
2023-03-29T00:06:46.069Z,8.769351
2023-03-29T00:07:46.056Z,8.769285
2023-03-29T00:08:46.049Z,8.769321
2023-03-29T00:09:46.149Z,8.769258
2023-03-29T00:10:46.044Z,8.769245
2023-03-29T00:11:46.095Z,8.769291
2023-03-29T00:12:46.040Z,8.769315
2023-03-29T00:13:46.021Z,8.769330
2023-03-29T00:14:46.049Z,8.769314
2023-03-29T00:15:46.024Z,8.769321
2023-03-29T00:16:46.002Z,8.769310
2023-03-29T00:17:46.063Z,8.769278
2023-03-29T00:18:46.008Z,8.769323
2023-03-29T00:19:45.976Z,8.769333
2023-03-29T00:21:22.097Z,8.769328
2023-03-29T00:21:45.966Z,8.769288
2023-03-29T00:22:45.999Z,8.769301
2023-03-29T00:23:46.019Z,8.769303
2023-03-29T00:24:45.945Z,8.769314
2023-03-29T00:25:45.932Z,8.769272
2023-03-29T00:26:45.928Z,8.769206
2023-03-29T00:27:45.897Z,8.769243
2023-03-29T00:28:45.896Z,8.769283
2023-03-29T00:29:45.929Z,8.769321
2023-03-29T00:30:45.900Z,8.769288
2023-03-29T00:31:46.037Z,8.769293
2023-03-29T00:32:45.954Z,8.769295
2023-03-29T00:33:45.871Z,8.769299
2023-03-29T00:34:45.925Z,8.769306
2023-03-29T00:35:45.955Z,8.769279
2023-03-29T00:36:45.864Z,8.769273
2023-03-29T00:37:45.867Z,8.769301
2023-03-29T00:38:45.855Z,8.769305
2023-03-29T00:39:45.834Z,8.769275
2023-03-29T00:40:45.817Z,8.769300
2023-03-29T00:41:45.868Z,8.769279
2023-03-29T00:42:45.816Z,8.769302
2023-03-29T00:43:45.791Z,8.769314
2023-03-29T00:44:45.798Z,8.769289
2023-03-29T00:45:45.820Z,8.769290
2023-03-29T00:46:45.809Z,8.769305
2023-03-29T00:47:46.310Z,8.769298
2023-03-29T00:48:45.757Z,8.769305
2023-03-29T00:49:45.786Z,8.769310
2023-03-29T00:50:45.758Z,8.769279
2023-03-29T00:51:45.769Z,8.769282
2023-03-29T00:52:45.753Z,8.769300
2023-03-29T00:53:45.799Z,8.769325
2023-03-29T00:54:45.735Z,8.769314
2023-03-29T00:55:45.752Z,8.769315
2023-03-29T00:56:45.806Z,8.769301
2023-03-29T00:57:45.706Z,8.769356
2023-03-29T00:58:45.705Z,8.769306
2023-03-29T00:59:45.729Z,8.769314
2023-03-29T01:00:45.699Z,8.769300
2023-03-29T01:01:45.738Z,8.769297
2023-03-29T01:02:45.718Z,8.769339
2023-03-29T01:03:45.743Z,8.769340
2023-03-29T01:04:45.666Z,8.769327
2023-03-29T01:05:45.698Z,8.769348
2023-03-29T01:06:45.670Z,8.769333
2023-03-29T01:07:45.637Z,8.769356
2023-03-29T01:08:45.653Z,8.769337
2023-03-29T01:09:45.622Z,8.769374
2023-03-29T01:10:45.610Z,8.769321
2023-03-29T01:11:45.648Z,8.769290
2023-03-29T01:12:45.601Z,8.769287
2023-03-29T01:13:45.618Z,8.769270
2023-03-29T01:14:45.614Z,8.769248
2023-03-29T01:15:45.587Z,8.769270
2023-03-29T01:16:45.694Z,8.769300
2023-03-29T01:17:45.647Z,8.769288
2023-03-29T01:18:45.561Z,8.769320
2023-03-29T01:19:45.550Z,8.769315
2023-03-29T01:20:45.581Z,8.769300
2023-03-29T01:21:45.543Z,8.769319
2023-03-29T01:22:45.562Z,8.769359
2023-03-29T01:23:45.581Z,8.769288
2023-03-29T01:24:45.532Z,8.769299
2023-03-29T01:25:45.574Z,8.769320
2023-03-29T01:26:45.532Z,8.769365
2023-03-29T01:27:45.507Z,8.769329
2023-03-29T01:28:45.510Z,8.769309
2023-03-29T01:29:45.570Z,8.769328
2023-03-29T01:30:45.508Z,8.769328
2023-03-29T01:31:45.598Z,8.769291
2023-03-29T01:32:45.581Z,8.769287
2023-03-29T01:33:45.518Z,8.769295
2023-03-29T01:34:45.452Z,8.769369
2023-03-29T01:35:45.587Z,8.769314
2023-03-29T01:36:45.453Z,8.769359
2023-03-29T01:37:45.444Z,8.769291
2023-03-29T01:38:45.430Z,8.769306
2023-03-29T01:39:45.444Z,8.769318
2023-03-29T01:40:45.415Z,8.769307
2023-03-29T01:41:45.437Z,8.769268
2023-03-29T01:42:45.408Z,8.769277
2023-03-29T01:43:45.394Z,8.769258
2023-03-29T01:44:45.415Z,8.769330
2023-03-29T01:45:45.442Z,8.769281
2023-03-29T01:46:45.399Z,8.769324
2023-03-29T01:47:45.413Z,8.769303
2023-03-29T01:48:45.365Z,8.769270
2023-03-29T01:49:45.389Z,8.769288
2023-03-29T01:50:45.344Z,8.769296
2023-03-29T01:51:45.357Z,8.769311
2023-03-29T01:52:45.348Z,8.769330
2023-03-29T01:53:45.749Z,8.769328
2023-03-29T01:54:45.313Z,8.769244
2023-03-29T01:55:45.312Z,8.769291
2023-03-29T01:56:45.333Z,8.769330
2023-03-29T01:57:45.312Z,8.769256
2023-03-29T01:58:45.296Z,8.769294
2023-03-29T01:59:45.348Z,8.769253
2023-03-29T02:00:45.288Z,8.769288
2023-03-29T02:01:45.336Z,8.769353
2023-03-29T02:02:45.398Z,8.769277
2023-03-29T02:03:45.334Z,8.769295
2023-03-29T02:04:45.273Z,8.769288
2023-03-29T02:05:45.310Z,8.769251
2023-03-29T02:06:45.245Z,8.769278
2023-03-29T02:07:45.234Z,8.769291
2023-03-29T02:08:45.239Z,8.769325
2023-03-29T02:09:45.228Z,8.769299
2023-03-29T02:10:45.222Z,8.769337
2023-03-29T02:11:45.273Z,8.769335
2023-03-29T02:12:45.180Z,8.769321
2023-03-29T02:13:45.204Z,8.769354
2023-03-29T02:14:45.178Z,8.769350
2023-03-29T02:15:45.227Z,8.769370
2023-03-29T02:16:45.174Z,8.769355
2023-03-29T02:17:45.220Z,8.769320
2023-03-29T02:18:45.170Z,8.769336
2023-03-29T02:19:45.136Z,8.769353
2023-03-29T02:20:45.176Z,8.769329
2023-03-29T02:21:45.120Z,8.769355
2023-03-29T02:22:45.127Z,8.769325
2023-03-29T02:24:31.207Z,8.769371
2023-03-29T02:24:45.144Z,8.769314
2023-03-29T02:26:05.748Z,8.769370
2023-03-29T02:26:46.122Z,8.769325
2023-03-29T02:27:45.099Z,8.769335
2023-03-29T02:28:45.119Z,8.769361
2023-03-29T02:29:45.106Z,8.769344
2023-03-29T02:30:45.114Z,8.769341
2023-03-29T02:31:45.164Z,8.769324
2023-03-29T02:32:45.133Z,8.769350
2023-03-29T02:33:45.044Z,8.769296
2023-03-29T02:34:45.062Z,8.769344
2023-03-29T02:35:45.154Z,8.769349
2023-03-29T02:36:45.063Z,8.769356
2023-03-29T02:37:45.014Z,8.769360
2023-03-29T02:38:45.033Z,8.769378
2023-03-29T02:39:45.029Z,8.769372
2023-03-29T02:40:45.005Z,8.769337
2023-03-29T02:41:45.008Z,8.769279
2023-03-29T02:42:45.003Z,8.769279
2023-03-29T02:43:45.001Z,8.769309
2023-03-29T02:44:45.010Z,8.769293
2023-03-29T02:45:44.979Z,8.769242
2023-03-29T02:46:44.961Z,8.769243
2023-03-29T02:47:45.069Z,8.769311
2023-03-29T02:48:44.958Z,8.769353
2023-03-29T02:49:44.939Z,8.769323
2023-03-29T02:50:44.933Z,8.769256
2023-03-29T02:51:44.915Z,8.769277
2023-03-29T02:52:44.928Z,8.769366
2023-03-29T02:53:44.968Z,8.769322
2023-03-29T02:54:44.910Z,8.769322
2023-03-29T02:55:44.907Z,8.769310
2023-03-29T02:56:45.012Z,8.769208
2023-03-29T02:57:44.893Z,8.769346
2023-03-29T02:58:44.880Z,8.769341
2023-03-29T02:59:44.957Z,8.769356
2023-03-29T03:00:44.868Z,8.769406
2023-03-29T03:01:44.988Z,8.769335
2023-03-29T03:02:44.933Z,8.769305
2023-03-29T03:03:44.942Z,8.769280
2023-03-29T03:04:44.840Z,8.769340
2023-03-29T03:05:44.869Z,8.769326
2023-03-29T03:06:44.808Z,8.769335
2023-03-29T03:07:44.792Z,8.769339
2023-03-29T03:08:44.813Z,8.769350
2023-03-29T03:09:44.792Z,8.769329
2023-03-29T03:10:44.781Z,8.769314
2023-03-29T03:11:44.879Z,8.769335
2023-03-29T03:12:46.424Z,8.769374
2023-03-29T03:13:44.778Z,8.769397
2023-03-29T03:14:44.776Z,8.769314
2023-03-29T03:15:44.755Z,8.769289
2023-03-29T03:16:44.858Z,8.769275
2023-03-29T03:17:44.827Z,8.769326
2023-03-29T03:18:44.765Z,8.769324
2023-03-29T03:19:44.776Z,8.769352
2023-03-29T03:20:44.728Z,8.769320
2023-03-29T03:21:44.731Z,8.769338
2023-03-29T03:22:44.729Z,8.769353
2023-03-29T03:23:44.739Z,8.769359
2023-03-29T03:24:44.706Z,8.769305
2023-03-29T03:25:44.693Z,8.769381
2023-03-29T03:26:44.665Z,8.769342
2023-03-29T03:27:44.676Z,8.769362
2023-03-29T03:28:44.676Z,8.769352
2023-03-29T03:29:44.693Z,8.769386
2023-03-29T03:30:44.664Z,8.769346
2023-03-29T03:31:44.807Z,8.769303
2023-03-29T03:32:44.722Z,8.769342
2023-03-29T03:33:44.611Z,8.769359
2023-03-29T03:34:44.601Z,8.769331
2023-03-29T03:35:44.674Z,8.769299
2023-03-29T03:36:44.615Z,8.769364
2023-03-29T03:37:44.624Z,8.769349
2023-03-29T03:38:44.602Z,8.769315
2023-03-29T03:39:44.595Z,8.769319
2023-03-29T03:40:44.568Z,8.769355
2023-03-29T03:41:44.611Z,8.769351
2023-03-29T03:42:44.605Z,8.769355
2023-03-29T03:43:44.565Z,8.769373
2023-03-29T03:44:44.538Z,8.769364
2023-03-29T03:45:44.540Z,8.769379
2023-03-29T03:46:44.537Z,8.769403
2023-03-29T03:47:44.612Z,8.769386
2023-03-29T03:48:44.533Z,8.769373
2023-03-29T03:49:50.748Z,8.769389
2023-03-29T03:50:44.505Z,8.769349
2023-03-29T03:51:44.480Z,8.769300
2023-03-29T03:52:44.502Z,8.769301
2023-03-29T03:53:44.530Z,8.769350
2023-03-29T03:54:44.465Z,8.769292
2023-03-29T03:55:44.485Z,8.769359
2023-03-29T03:56:44.476Z,8.769350
2023-03-29T03:57:44.442Z,8.769375
2023-03-29T03:58:44.455Z,8.769346
2023-03-29T03:59:44.829Z,8.769353
2023-03-29T04:00:44.424Z,8.769360
2023-03-29T04:01:44.458Z,8.769346
2023-03-29T04:02:44.490Z,8.769332
2023-03-29T04:03:44.474Z,8.769213
2023-03-29T04:04:44.426Z,8.769260
2023-03-29T04:05:44.442Z,8.769328
2023-03-29T04:06:44.398Z,8.769365
2023-03-29T04:07:44.409Z,8.769319
2023-03-29T04:08:44.386Z,8.769347
2023-03-29T04:09:44.359Z,8.769340
2023-03-29T04:10:44.356Z,8.769323
2023-03-29T04:11:44.405Z,8.769327
2023-03-29T04:12:44.376Z,8.769334
2023-03-29T04:13:44.339Z,8.769348
2023-03-29T04:14:44.353Z,8.769317
2023-03-29T04:15:44.355Z,8.769339
2023-03-29T04:16:44.347Z,8.769331
2023-03-29T04:17:44.429Z,8.769341
2023-03-29T04:18:44.495Z,8.769369
2023-03-29T04:19:44.298Z,8.769349
2023-03-29T04:20:44.291Z,8.769284
2023-03-29T04:21:44.298Z,8.769329
2023-03-29T04:22:44.283Z,8.769355
2023-03-29T04:23:44.300Z,8.769354
2023-03-29T04:24:44.282Z,8.769384
2023-03-29T04:25:44.269Z,8.769341
2023-03-29T04:26:44.242Z,8.769265
2023-03-29T04:27:44.268Z,8.769325
2023-03-29T04:28:44.242Z,8.769373
2023-03-29T04:29:44.268Z,8.769312
2023-03-29T04:30:44.244Z,8.769346
2023-03-29T04:31:44.244Z,8.769367
2023-03-29T04:32:44.239Z,8.769346
2023-03-29T04:33:44.212Z,8.769278
2023-03-29T04:34:44.197Z,8.769368
2023-03-29T04:35:44.275Z,8.769352
2023-03-29T04:36:44.188Z,8.769261
2023-03-29T04:37:44.168Z,8.769215
2023-03-29T04:38:47.319Z,8.769243
2023-03-29T04:39:44.160Z,8.769263
2023-03-29T04:40:44.357Z,8.769258
2023-03-29T04:41:44.199Z,8.769313
2023-03-29T04:42:44.150Z,8.769342
2023-03-29T04:43:44.163Z,8.769312
2023-03-29T04:44:44.224Z,8.769280
2023-03-29T04:45:44.131Z,8.769337
2023-03-29T04:46:44.167Z,8.769315
2023-03-29T04:47:44.212Z,8.769204
2023-03-29T04:48:44.157Z,8.769087
2023-03-29T04:49:44.147Z,8.769165
2023-03-29T04:50:44.096Z,8.769140
2023-03-29T04:51:44.166Z,8.769304
2023-03-29T04:52:44.193Z,8.769292
2023-03-29T04:53:44.168Z,8.769263
2023-03-29T04:54:44.068Z,8.769270
2023-03-29T04:55:44.047Z,8.769369
2023-03-29T04:56:44.077Z,8.769345
2023-03-29T04:57:44.033Z,8.769333
2023-03-29T04:58:44.050Z,8.769357
2023-03-29T04:59:44.065Z,8.769244
2023-03-29T05:00:44.022Z,8.769259
2023-03-29T05:01:44.125Z,8.769262
2023-03-29T05:02:44.099Z,8.769333
2023-03-29T05:03:44.060Z,8.769381
2023-03-29T05:04:44.021Z,8.769290
2023-03-29T05:05:44.388Z,8.769256
2023-03-29T05:06:43.968Z,8.769338
2023-03-29T05:07:43.970Z,8.769290
2023-03-29T05:08:43.974Z,8.769351
2023-03-29T05:09:43.972Z,8.769308
2023-03-29T05:10:43.940Z,8.769282
2023-03-29T05:11:43.972Z,8.769311
2023-03-29T05:12:43.951Z,8.769345
2023-03-29T05:13:43.953Z,8.769345
2023-03-29T05:14:43.924Z,8.769327
2023-03-29T05:15:43.912Z,8.769223
2023-03-29T05:16:43.984Z,8.769258
2023-03-29T05:17:43.984Z,8.769271
2023-03-29T05:18:43.879Z,8.769218
2023-03-29T05:19:43.884Z,8.769269
2023-03-29T05:20:43.883Z,8.769321
2023-03-29T05:21:45.475Z,8.769380
2023-03-29T05:22:43.858Z,8.769359
2023-03-29T05:23:43.929Z,8.769266
2023-03-29T05:24:43.856Z,8.769308
2023-03-29T05:25:43.860Z,8.769239
2023-03-29T05:26:43.832Z,8.769247
2023-03-29T05:27:43.842Z,8.769309
2023-03-29T05:28:43.863Z,8.769237
2023-03-29T05:29:43.859Z,8.769294
2023-03-29T05:30:43.802Z,8.769357
2023-03-29T05:31:43.882Z,8.769289
2023-03-29T05:32:43.830Z,8.769339
2023-03-29T05:33:43.805Z,8.769305
2023-03-29T05:34:43.820Z,8.769250
2023-03-29T05:35:43.836Z,8.769307
2023-03-29T05:36:43.839Z,8.769361
2023-03-29T05:37:43.748Z,8.769420
2023-03-29T05:38:43.761Z,8.769286
2023-03-29T05:39:43.727Z,8.769305
2023-03-29T05:40:43.752Z,8.769165
2023-03-29T05:41:43.763Z,8.769224
2023-03-29T05:42:43.731Z,8.769303
2023-03-29T05:43:43.713Z,8.769359
2023-03-29T05:44:43.748Z,8.769337
2023-03-29T05:45:43.754Z,8.769284
2023-03-29T05:46:43.707Z,8.769297
2023-03-29T05:47:43.775Z,8.769253
2023-03-29T05:48:43.685Z,8.769189
2023-03-29T05:49:43.683Z,8.769237
2023-03-29T05:50:46.228Z,8.769296
2023-03-29T05:51:43.657Z,8.769276
2023-03-29T05:52:43.645Z,8.769298
2023-03-29T05:53:43.698Z,8.769293
2023-03-29T05:54:43.628Z,8.769342
2023-03-29T05:55:43.649Z,8.769340
2023-03-29T05:56:43.663Z,8.769265
2023-03-29T05:57:43.634Z,8.769206
2023-03-29T05:58:43.640Z,8.769217
2023-03-29T05:59:43.645Z,8.769314
2023-03-29T06:00:43.583Z,8.769336
2023-03-29T06:01:43.597Z,8.769321
2023-03-29T06:02:43.675Z,8.769375
2023-03-29T06:03:43.684Z,8.769281
2023-03-29T06:04:43.618Z,8.769281
2023-03-29T06:05:43.610Z,8.769279
2023-03-29T06:06:43.568Z,8.769291
2023-03-29T06:07:43.551Z,8.769327
2023-03-29T06:08:43.562Z,8.769395
2023-03-29T06:09:43.564Z,8.769362
2023-03-29T06:10:43.532Z,8.769359
2023-03-29T06:11:43.778Z,8.769358
2023-03-29T06:12:43.552Z,8.769323
2023-03-29T06:13:43.520Z,8.769357
2023-03-29T06:14:43.512Z,8.769340
2023-03-29T06:15:43.508Z,8.769321
2023-03-29T06:16:43.594Z,8.769294
2023-03-29T06:17:43.582Z,8.769302
2023-03-29T06:18:43.491Z,8.769316
2023-03-29T06:19:43.478Z,8.769306
2023-03-29T06:20:43.456Z,8.769326
2023-03-29T06:21:43.457Z,8.769342
2023-03-29T06:22:43.469Z,8.769325
2023-03-29T06:23:43.484Z,8.769339
2023-03-29T06:24:43.433Z,8.769358
2023-03-29T06:25:43.426Z,8.769375
2023-03-29T06:26:43.448Z,8.769384
2023-03-29T06:27:43.406Z,8.769322
2023-03-29T06:28:43.407Z,8.769332
2023-03-29T06:29:43.459Z,8.769358
2023-03-29T06:30:43.399Z,8.769356
2023-03-29T06:31:43.414Z,8.769339
2023-03-29T06:32:43.455Z,8.769297
2023-03-29T06:33:43.379Z,8.769343
2023-03-29T06:34:43.360Z,8.769402
2023-03-29T06:35:43.404Z,8.769375
2023-03-29T06:36:43.367Z,8.769366
2023-03-29T06:37:43.383Z,8.769390
2023-03-29T06:38:43.341Z,8.769359
2023-03-29T06:39:43.355Z,8.769378
2023-03-29T06:40:43.333Z,8.769365
2023-03-29T06:41:43.338Z,8.769342
2023-03-29T06:42:43.315Z,8.769303
2023-03-29T06:43:43.293Z,8.769343
2023-03-29T06:44:43.294Z,8.769360
2023-03-29T06:45:43.288Z,8.769356
2023-03-29T06:46:43.362Z,8.769367
2023-03-29T06:47:43.402Z,8.769313
2023-03-29T06:48:43.300Z,8.769338
2023-03-29T06:49:43.250Z,8.769316
2023-03-29T06:50:43.276Z,8.769329
2023-03-29T06:51:43.241Z,8.769361
2023-03-29T06:52:43.244Z,8.769342
2023-03-29T06:53:43.295Z,8.769378
2023-03-29T06:54:43.224Z,8.769350
2023-03-29T06:55:43.265Z,8.769327
2023-03-29T06:56:43.243Z,8.769337
2023-03-29T06:57:43.235Z,8.769295
2023-03-29T06:58:43.214Z,8.769336
2023-03-29T06:59:43.233Z,8.769360
2023-03-29T07:00:43.194Z,8.769324
2023-03-29T07:01:43.260Z,8.769273
2023-03-29T07:02:43.246Z,8.769289
2023-03-29T07:03:44.767Z,8.769377
2023-03-29T07:04:43.278Z,8.769359
2023-03-29T07:05:43.182Z,8.769341
2023-03-29T07:06:43.126Z,8.769263
2023-03-29T07:07:43.137Z,8.769309
2023-03-29T07:08:43.119Z,8.769381
2023-03-29T07:09:43.120Z,8.769352
2023-03-29T07:10:43.132Z,8.769300
2023-03-29T07:11:43.483Z,8.769294
2023-03-29T07:12:43.113Z,8.769343
2023-03-29T07:13:43.121Z,8.769347
2023-03-29T07:14:45.144Z,8.769353
2023-03-29T07:15:43.063Z,8.769334
2023-03-29T07:16:43.141Z,8.769288
2023-03-29T07:17:43.403Z,8.769322
2023-03-29T07:18:43.129Z,8.769334
2023-03-29T07:19:43.048Z,8.769270
2023-03-29T07:20:43.073Z,8.769248
2023-03-29T07:21:43.030Z,8.769155
2023-03-29T07:22:43.020Z,8.769212
2023-03-29T07:23:43.089Z,8.769303
2023-03-29T07:24:43.021Z,8.769342
2023-03-29T07:25:43.030Z,8.769280
2023-03-29T07:26:52.269Z,8.769349
2023-03-29T07:27:44.006Z,8.769247
2023-03-29T07:28:43.009Z,8.769251
2023-03-29T07:29:42.997Z,8.769289
2023-03-29T07:30:42.982Z,8.769320
2023-03-29T07:31:42.995Z,8.769287
2023-03-29T07:32:43.042Z,8.769247
2023-03-29T07:33:43.146Z,8.769260
2023-03-29T07:34:42.990Z,8.769197
2023-03-29T07:35:42.986Z,8.769292
2023-03-29T07:36:42.920Z,8.769297
2023-03-29T07:37:43.055Z,8.769230
2023-03-29T07:38:42.958Z,8.769197
2023-03-29T07:39:42.901Z,8.769180
2023-03-29T07:40:42.902Z,8.769251
2023-03-29T07:41:42.921Z,8.769276
2023-03-29T07:42:42.885Z,8.769277
2023-03-29T07:43:42.878Z,8.769311
2023-03-29T07:44:42.860Z,8.769305
2023-03-29T07:45:42.847Z,8.769238
2023-03-29T07:46:42.861Z,8.769277
2023-03-29T07:47:42.888Z,8.769315
2023-03-29T07:48:42.827Z,8.769297
2023-03-29T07:49:42.823Z,8.769326
2023-03-29T07:50:42.836Z,8.769305
2023-03-29T07:51:42.828Z,8.769313
2023-03-29T07:52:42.807Z,8.769348
2023-03-29T07:53:42.871Z,8.769305
2023-03-29T07:54:42.796Z,8.769305
2023-03-29T07:55:44.642Z,8.769296
2023-03-29T07:56:42.823Z,8.769292
2023-03-29T07:57:42.765Z,8.769281
2023-03-29T07:58:42.748Z,8.769232
2023-03-29T07:59:42.778Z,8.769262
2023-03-29T08:00:42.796Z,8.769267
2023-03-29T08:01:42.724Z,8.769265
2023-03-29T08:02:42.746Z,8.769224
2023-03-29T08:03:42.815Z,8.769295
2023-03-29T08:04:42.755Z,8.769278
2023-03-29T08:05:42.820Z,8.769307
2023-03-29T08:06:42.695Z,8.769279
2023-03-29T08:07:42.684Z,8.769333
2023-03-29T08:08:42.712Z,8.769271
2023-03-29T08:09:42.651Z,8.769274
2023-03-29T08:10:42.722Z,8.769248
2023-03-29T08:11:42.694Z,8.769269
2023-03-29T08:12:42.658Z,8.769258
2023-03-29T08:13:42.658Z,8.769294
2023-03-29T08:14:42.645Z,8.769293
2023-03-29T08:15:42.637Z,8.769243
2023-03-29T08:16:42.671Z,8.769278
2023-03-29T08:17:42.686Z,8.769281
2023-03-29T08:18:42.599Z,8.769243
2023-03-29T08:19:50.822Z,8.769257
2023-03-29T08:20:43.600Z,8.769268
2023-03-29T08:21:42.584Z,8.769279
2023-03-29T08:22:42.578Z,8.769224
2023-03-29T08:23:42.998Z,8.769232
2023-03-29T08:24:42.572Z,8.769242
2023-03-29T08:25:42.585Z,8.769236
2023-03-29T08:26:42.555Z,8.769295
2023-03-29T08:27:42.551Z,8.769284
2023-03-29T08:28:42.558Z,8.769384
2023-03-29T08:29:42.582Z,8.769295
2023-03-29T08:30:42.555Z,8.769265
2023-03-29T08:31:42.523Z,8.769278
2023-03-29T08:32:42.558Z,8.769278
2023-03-29T08:33:42.521Z,8.769300
2023-03-29T08:34:42.489Z,8.769303
2023-03-29T08:35:42.553Z,8.769262
2023-03-29T08:36:42.481Z,8.769256
2023-03-29T08:37:42.478Z,8.769260
2023-03-29T08:38:42.458Z,8.769281
2023-03-29T08:39:42.529Z,8.769294
2023-03-29T08:40:42.457Z,8.769276
2023-03-29T08:41:42.549Z,8.769262
2023-03-29T08:42:42.449Z,8.769257
2023-03-29T08:43:42.438Z,8.769261
2023-03-29T08:44:42.430Z,8.769278
2023-03-29T08:45:42.423Z,8.769257
2023-03-29T08:46:42.527Z,8.769262
2023-03-29T08:47:42.576Z,8.769249
2023-03-29T08:48:42.498Z,8.769270
2023-03-29T08:49:42.406Z,8.769269
2023-03-29T08:50:42.390Z,8.769356
2023-03-29T08:51:42.399Z,8.769300
2023-03-29T08:52:42.362Z,8.769308
2023-03-29T08:53:42.389Z,8.769279
2023-03-29T08:54:42.349Z,8.769269
2023-03-29T08:55:42.364Z,8.769220
2023-03-29T08:56:42.366Z,8.769238
2023-03-29T08:57:42.326Z,8.769238
2023-03-29T08:58:42.367Z,8.769254
2023-03-29T08:59:42.367Z,8.769218
2023-03-29T09:00:42.306Z,8.769245
2023-03-29T09:01:42.321Z,8.769251
2023-03-29T09:02:42.336Z,8.769248
2023-03-29T09:03:42.341Z,8.769203
2023-03-29T09:04:42.320Z,8.769258
2023-03-29T09:05:42.306Z,8.769235
2023-03-29T09:06:42.281Z,8.769240
2023-03-29T09:07:42.272Z,8.769268
2023-03-29T09:08:42.257Z,8.769225
2023-03-29T09:09:42.247Z,8.769249
2023-03-29T09:10:42.236Z,8.769228
2023-03-29T09:11:42.267Z,8.769239
2023-03-29T09:12:42.272Z,8.769217
2023-03-29T09:13:42.283Z,8.769294
2023-03-29T09:14:42.204Z,8.769300
2023-03-29T09:15:42.225Z,8.769311
2023-03-29T09:16:42.192Z,8.769198
2023-03-29T09:17:42.271Z,8.769250
2023-03-29T09:18:42.222Z,8.769295
2023-03-29T09:19:42.194Z,8.769253
2023-03-29T09:20:42.160Z,8.769265
2023-03-29T09:21:42.694Z,8.769273
2023-03-29T09:22:42.147Z,8.769274
2023-03-29T09:23:42.604Z,8.769238
2023-03-29T09:24:42.182Z,8.769252
2023-03-29T09:25:52.591Z,8.769289
2023-03-29T09:26:43.186Z,8.769263
2023-03-29T09:27:42.128Z,8.769180
2023-03-29T09:28:42.115Z,8.769301
2023-03-29T09:29:42.181Z,8.769258
2023-03-29T09:30:42.105Z,8.769265
2023-03-29T09:31:42.148Z,8.769264
2023-03-29T09:32:42.143Z,8.769308
2023-03-29T09:33:42.079Z,8.769320
2023-03-29T09:34:42.075Z,8.769314
2023-03-29T09:35:42.136Z,8.769310
2023-03-29T09:36:42.870Z,8.769283
2023-03-29T09:37:42.055Z,8.769280
2023-03-29T09:38:42.045Z,8.769298
2023-03-29T09:39:42.019Z,8.769282
2023-03-29T09:40:42.063Z,8.769276
2023-03-29T09:41:42.046Z,8.769277
2023-03-29T09:42:42.000Z,8.769307
2023-03-29T09:43:42.018Z,8.769291
2023-03-29T09:44:42.009Z,8.769300
2023-03-29T09:45:42.021Z,8.769315
2023-03-29T09:46:41.981Z,8.769303
2023-03-29T09:47:42.127Z,8.769326
2023-03-29T09:48:41.972Z,8.769337
2023-03-29T09:49:41.969Z,8.769314
2023-03-29T09:50:41.971Z,8.769295
2023-03-29T09:51:41.944Z,8.769302
2023-03-29T09:52:41.962Z,8.769312
2023-03-29T09:53:41.976Z,8.769330
2023-03-29T09:54:41.921Z,8.769288
2023-03-29T09:55:41.939Z,8.769262
2023-03-29T09:56:41.987Z,8.769246
2023-03-29T09:57:41.898Z,8.769290
2023-03-29T09:58:41.922Z,8.769279
2023-03-29T09:59:41.946Z,8.769300
2023-03-29T10:00:41.901Z,8.769341
2023-03-29T10:01:41.922Z,8.769294
2023-03-29T10:02:41.892Z,8.769292
2023-03-29T10:03:41.911Z,8.769251
2023-03-29T10:04:41.918Z,8.769286
2023-03-29T10:05:41.940Z,8.769313
2023-03-29T10:06:41.843Z,8.769330
2023-03-29T10:07:41.839Z,8.769300
2023-03-29T10:08:41.870Z,8.769251
2023-03-29T10:09:41.837Z,8.769254
2023-03-29T10:10:41.792Z,8.769281
2023-03-29T10:11:41.849Z,8.769309
2023-03-29T10:12:41.819Z,8.769281
2023-03-29T10:13:41.851Z,8.769319
2023-03-29T10:14:41.792Z,8.769312
2023-03-29T10:15:41.791Z,8.769288
2023-03-29T10:16:41.860Z,8.769303
2023-03-29T10:17:41.812Z,8.769262
2023-03-29T10:18:41.793Z,8.769293
2023-03-29T10:19:41.812Z,8.769292
2023-03-29T10:20:41.756Z,8.769256
2023-03-29T10:21:41.750Z,8.769304
2023-03-29T10:22:41.750Z,8.769298
2023-03-29T10:23:41.778Z,8.769271
2023-03-29T10:24:41.746Z,8.769265
2023-03-29T10:25:42.798Z,8.769284
2023-03-29T10:26:41.717Z,8.769279
2023-03-29T10:27:41.705Z,8.769256
2023-03-29T10:28:41.706Z,8.769259
2023-03-29T10:29:41.919Z,8.769257
2023-03-29T10:30:41.672Z,8.769270
2023-03-29T10:31:41.753Z,8.769279
2023-03-29T10:32:41.710Z,8.769247
2023-03-29T10:33:41.657Z,8.769300
2023-03-29T10:34:41.627Z,8.769271
2023-03-29T10:35:41.791Z,8.769241
2023-03-29T10:36:41.619Z,8.769234
2023-03-29T10:37:41.611Z,8.769215
2023-03-29T10:38:41.622Z,8.769197
2023-03-29T10:39:41.681Z,8.769282
2023-03-29T10:40:41.596Z,8.769331
2023-03-29T10:41:41.641Z,8.769327
2023-03-29T10:42:41.602Z,8.769309
2023-03-29T10:43:41.573Z,8.769312
2023-03-29T10:44:41.594Z,8.769320
2023-03-29T10:45:41.568Z,8.769329
2023-03-29T10:46:41.630Z,8.769342
2023-03-29T10:47:41.611Z,8.769330
2023-03-29T10:48:41.600Z,8.769326
2023-03-29T10:49:41.551Z,8.769330
2023-03-29T10:50:41.530Z,8.769328
2023-03-29T10:51:41.501Z,8.769335
2023-03-29T10:52:41.499Z,8.769346
2023-03-29T10:53:41.574Z,8.769352
2023-03-29T10:54:41.512Z,8.769339
2023-03-29T10:55:41.464Z,8.769334
2023-03-29T10:56:41.669Z,8.769371
2023-03-29T10:57:41.465Z,8.769380
2023-03-29T10:58:41.459Z,8.769389
2023-03-29T10:59:41.592Z,8.769404
2023-03-29T11:00:41.428Z,8.769394
2023-03-29T11:01:41.518Z,8.769328
2023-03-29T11:02:41.644Z,8.769400
2023-03-29T11:03:41.546Z,8.769396
2023-03-29T11:04:41.504Z,8.769380
2023-03-29T11:05:41.539Z,8.769322
2023-03-29T11:06:41.472Z,8.769309
2023-03-29T11:07:42.479Z,8.769341
2023-03-29T11:08:41.387Z,8.769366
2023-03-29T11:09:41.442Z,8.769367
2023-03-29T11:10:41.361Z,8.769372
2023-03-29T11:11:41.438Z,8.769374
2023-03-29T11:12:41.330Z,8.769381
2023-03-29T11:13:41.399Z,8.769320
2023-03-29T11:14:41.356Z,8.769343
2023-03-29T11:15:41.371Z,8.769322
2023-03-29T11:16:41.314Z,8.769345
2023-03-29T11:17:41.410Z,8.769398
2023-03-29T11:18:41.333Z,8.769399
2023-03-29T11:19:41.371Z,8.769320
2023-03-29T11:20:41.380Z,8.769224
2023-03-29T11:21:41.288Z,8.769280
2023-03-29T11:22:41.305Z,8.769300
2023-03-29T11:23:41.331Z,8.769321
2023-03-29T11:24:41.282Z,8.769321
2023-03-29T11:25:41.348Z,8.769301
2023-03-29T11:26:42.369Z,8.769346
2023-03-29T11:27:41.340Z,8.769360
2023-03-29T11:28:41.357Z,8.769336
2023-03-29T11:29:41.519Z,8.769329
2023-03-29T11:30:41.225Z,8.769349
2023-03-29T11:31:41.328Z,8.769339
2023-03-29T11:32:41.266Z,8.769341
2023-03-29T11:33:41.268Z,8.769324
2023-03-29T11:34:41.208Z,8.769310
2023-03-29T11:35:41.412Z,8.769330
2023-03-29T11:36:41.197Z,8.769318
2023-03-29T11:37:41.189Z,8.769324
2023-03-29T11:38:43.284Z,8.769342
2023-03-29T11:39:41.209Z,8.769379
2023-03-29T11:40:41.150Z,8.769353
2023-03-29T11:41:41.236Z,8.769404
2023-03-29T11:42:41.148Z,8.769344
2023-03-29T11:43:41.143Z,8.769338
2023-03-29T11:44:41.129Z,8.769319